createdAt,value
2019-02-16T00:00:48.301Z,96646.70
2019-02-16T00:03:18.250Z,96654.50
2019-02-16T00:05:47.652Z,96648.58
2019-02-16T00:08:17.018Z,96658.52
2019-02-16T00:10:46.378Z,96655.57
2019-02-16T00:13:15.722Z,96659.18
2019-02-16T00:15:45.059Z,96656.06
2019-02-16T00:18:14.383Z,96656.80
2019-02-16T00:20:43.770Z,96658.62
2019-02-16T00:23:13.108Z,96657.89
2019-02-16T00:25:42.448Z,96659.73
2019-02-16T00:28:11.823Z,96661.38
2019-02-16T00:30:41.142Z,96659.05
2019-02-16T00:33:10.566Z,96644.87
2019-02-16T00:35:40.104Z,96644.87
2019-02-16T00:38:09.477Z,96651.89
2019-02-16T00:40:38.855Z,96654.26
2019-02-16T00:43:08.188Z,96648.86
2019-02-16T00:45:37.573Z,96653.31
2019-02-16T00:48:06.936Z,96649.97
2019-02-16T00:50:36.286Z,96639.11
2019-02-16T00:53:05.653Z,96651.94
2019-02-16T00:55:35.088Z,96643.06
2019-02-16T00:58:04.441Z,96642.42
2019-02-16T01:00:33.784Z,96644.61
2019-02-16T01:03:03.109Z,96637.22
2019-02-16T01:05:32.469Z,96633.88
2019-02-16T01:08:01.782Z,96631.21
2019-02-16T01:10:31.144Z,96628.55
2019-02-16T01:13:00.471Z,96625.20
2019-02-16T01:15:29.890Z,96629.78
2019-02-16T01:17:59.241Z,96630.85
2019-02-16T01:20:28.583Z,96622.09
2019-02-16T01:22:57.935Z,96624.56
2019-02-16T01:25:27.269Z,96631.70
2019-02-16T01:27:56.588Z,96628.00
2019-02-16T01:30:25.922Z,96630.08
2019-02-16T01:32:55.241Z,96625.90
2019-02-16T01:35:24.610Z,96621.42
2019-02-16T01:37:53.915Z,96624.49
2019-02-16T01:40:23.262Z,96620.28
2019-02-16T01:42:52.592Z,96620.09
2019-02-16T01:45:21.976Z,96610.16
2019-02-16T01:47:51.357Z,96614.62
2019-02-16T01:50:20.727Z,96607.60
2019-02-16T01:52:50.070Z,96606.02
2019-02-16T01:55:19.398Z,96610.27
2019-02-16T01:57:48.744Z,96609.81
2019-02-16T02:00:18.094Z,96609.81
2019-02-16T02:02:47.413Z,96609.00
2019-02-16T02:05:16.844Z,96611.89
2019-02-16T02:07:46.216Z,96616.59
2019-02-16T02:10:15.660Z,96611.27
2019-02-16T02:12:45.030Z,96614.73
2019-02-16T02:15:14.472Z,96614.19
2019-02-16T02:17:43.813Z,96616.77
2019-02-16T02:20:13.259Z,96617.06
2019-02-16T02:22:42.617Z,96623.20
2019-02-16T02:25:12.199Z,96610.90
2019-02-16T02:27:41.543Z,96617.36
2019-02-16T02:30:11.282Z,96622.83
2019-02-16T02:32:40.662Z,96618.25
2019-02-16T02:35:10.177Z,96619.58
2019-02-16T02:37:39.545Z,96617.66
2019-02-16T02:40:09.411Z,96615.52
2019-02-16T02:42:38.834Z,96630.02
2019-02-16T02:45:09.426Z,96623.55
2019-02-16T02:47:38.772Z,96620.86
2019-02-16T02:50:08.278Z,96624.70
2019-02-16T02:52:37.650Z,96624.92
2019-02-16T02:55:07.589Z,96622.91
2019-02-16T02:57:36.997Z,96620.52
2019-02-16T03:00:07.475Z,96618.37
2019-02-16T03:02:36.764Z,96618.33
2019-02-16T03:05:07.075Z,96624.67
2019-02-16T03:07:36.528Z,96625.50
2019-02-16T03:10:06.066Z,96626.05
2019-02-16T03:12:35.412Z,96634.33
2019-02-16T03:15:04.886Z,96636.51
2019-02-16T03:17:34.199Z,96645.81
2019-02-16T03:20:03.654Z,96634.88
2019-02-16T03:23:08.781Z,96636.03
2019-02-16T03:25:38.131Z,96635.70
2019-02-16T03:28:42.946Z,96635.81
2019-02-16T03:31:45.591Z,96636.11
2019-02-16T03:34:21.595Z,96626.85
2019-02-16T03:37:25.231Z,96639.77
2019-02-16T03:39:54.588Z,96629.94
2019-02-16T03:42:24.118Z,96630.13
2019-02-16T03:44:53.426Z,96632.04
2019-02-16T03:47:22.721Z,96624.33
2019-02-16T03:49:52.068Z,96620.86
2019-02-16T03:52:21.418Z,96618.83
2019-02-16T03:54:50.757Z,96617.54
2019-02-16T03:57:20.135Z,96613.62
2019-02-16T03:59:49.690Z,96621.90
2019-02-16T04:02:19.019Z,96620.61
2019-02-16T04:04:48.347Z,96625.12
2019-02-16T04:07:17.705Z,96615.73
2019-02-16T04:09:47.018Z,96609.37
2019-02-16T04:12:16.331Z,96608.83
2019-02-16T04:14:45.728Z,96607.75
2019-02-16T04:17:15.084Z,96611.19
2019-02-16T04:19:44.397Z,96610.19
2019-02-16T04:22:23.882Z,96604.91
2019-02-16T04:24:44.872Z,96602.51
2019-02-16T04:27:14.273Z,96601.22
2019-02-16T04:29:43.644Z,96604.28
2019-02-16T04:32:12.955Z,96598.94
2019-02-16T04:34:42.309Z,96597.41
2019-02-16T04:37:11.626Z,96597.71
2019-02-16T04:39:40.927Z,96595.78
2019-02-16T04:42:10.252Z,96599.17
2019-02-16T04:44:39.741Z,96608.22
2019-02-16T04:47:09.081Z,96605.05
2019-02-16T04:49:38.425Z,96601.56
2019-02-16T04:52:07.468Z,96607.40
2019-02-16T04:54:36.944Z,96616.92
2019-02-16T04:57:06.279Z,96621.97
2019-02-16T04:59:35.652Z,96616.66
2019-02-16T05:02:04.987Z,96630.51
2019-02-16T05:04:34.354Z,96636.08
2019-02-16T05:07:03.671Z,96644.86
2019-02-16T05:09:32.991Z,96607.89
2019-02-16T05:12:02.366Z,96639.37
2019-02-16T05:14:31.698Z,96641.22
2019-02-16T05:17:01.065Z,96647.09
2019-02-16T05:19:30.400Z,96642.34
2019-02-16T05:21:59.724Z,96649.80
2019-02-16T05:24:29.078Z,96648.37
2019-02-16T05:26:58.405Z,96654.37
2019-02-16T05:29:27.786Z,96655.98
2019-02-16T05:31:57.110Z,96655.66
2019-02-16T05:34:26.450Z,96659.03
2019-02-16T05:36:55.830Z,96652.83
2019-02-16T05:39:25.178Z,96660.75
2019-02-16T05:41:55.208Z,96658.83
2019-02-16T05:44:25.482Z,96650.40
2019-02-16T05:46:56.174Z,96650.40
2019-02-16T05:49:26.000Z,96658.44
2019-02-16T05:51:55.719Z,96656.66
2019-02-16T05:54:25.217Z,96661.97
2019-02-16T05:56:54.996Z,96660.28
2019-02-16T05:59:24.484Z,96661.88
2019-02-16T06:01:55.516Z,96669.86
2019-02-16T06:04:25.341Z,96666.82
2019-02-16T06:06:54.710Z,96665.05
2019-02-16T06:09:24.122Z,96662.28
2019-02-16T06:11:53.497Z,96656.14
2019-02-16T06:14:22.888Z,96658.06
2019-02-16T06:16:52.209Z,96653.02
2019-02-16T06:19:21.874Z,96647.94
2019-02-16T06:21:51.248Z,96648.75
2019-02-16T06:24:20.565Z,96652.52
2019-02-16T06:26:49.940Z,96655.20
2019-02-16T06:29:19.258Z,96659.99
2019-02-16T06:31:48.569Z,96659.94
2019-02-16T06:34:17.906Z,96655.28
2019-02-16T06:36:47.347Z,96660.31
2019-02-16T06:39:16.691Z,96674.05
2019-02-16T06:41:46.097Z,96667.09
2019-02-16T06:44:15.539Z,96672.34
2019-02-16T06:46:44.956Z,96684.20
2019-02-16T06:49:14.316Z,96673.62
2019-02-16T06:51:43.623Z,96675.66
2019-02-16T06:54:13.065Z,96683.85
2019-02-16T06:57:01.688Z,96682.77
2019-02-16T06:59:30.997Z,96690.91
2019-02-16T07:02:00.398Z,96694.33
2019-02-16T07:04:29.725Z,96688.77
2019-02-16T07:06:59.087Z,96691.95
2019-02-16T07:09:28.542Z,96688.38
2019-02-16T07:11:57.910Z,96688.19
2019-02-16T07:14:27.267Z,96686.56
2019-02-16T07:17:12.249Z,96694.07
2019-02-16T07:19:46.572Z,96694.41
2019-02-16T07:22:15.954Z,96693.11
2019-02-16T07:24:45.474Z,96689.33
2019-02-16T07:27:14.882Z,96699.92
2019-02-16T07:29:44.274Z,96702.76
2019-02-16T07:32:13.681Z,96705.72
2019-02-16T07:34:43.118Z,96709.20
2019-02-16T07:37:12.496Z,96713.30
2019-02-16T07:39:41.898Z,96714.77
2019-02-16T07:42:11.269Z,96710.14
2019-02-16T07:44:51.952Z,96717.33
2019-02-16T07:47:58.635Z,96711.59
2019-02-16T07:51:05.062Z,96717.20
2019-02-16T07:53:43.054Z,96712.11
2019-02-16T07:56:39.924Z,96712.56
2019-02-16T07:59:34.261Z,96705.09
2019-02-16T08:02:09.118Z,96698.62
2019-02-16T08:04:57.436Z,96699.50
2019-02-16T08:07:48.270Z,96693.01
2019-02-16T08:10:45.452Z,96690.66
2019-02-16T08:13:39.603Z,96683.66
2019-02-16T08:16:34.183Z,96682.26
2019-02-16T08:19:34.516Z,96682.37
2019-02-16T08:22:37.871Z,96673.88
2019-02-16T08:25:27.595Z,96672.02
2019-02-16T08:28:14.646Z,96670.95
2019-02-16T08:31:01.639Z,96673.52
2019-02-16T08:33:48.704Z,96674.05
2019-02-16T08:36:32.722Z,96676.65
2019-02-16T08:39:16.630Z,96664.41
2019-02-16T08:42:07.784Z,96677.70
2019-02-16T08:44:54.825Z,96678.80
2019-02-16T08:47:52.268Z,96673.33
2019-02-16T08:50:40.582Z,96669.95
2019-02-16T08:53:28.868Z,96681.02
2019-02-16T08:56:15.761Z,96678.91
2019-02-16T08:59:13.211Z,96676.88
2019-02-16T09:01:55.985Z,96673.10
2019-02-16T09:04:49.476Z,96672.81
2019-02-16T09:07:33.428Z,96665.30
2019-02-16T09:10:18.772Z,96661.31
2019-02-16T09:13:09.856Z,96660.42
2019-02-16T09:15:57.718Z,96658.45
2019-02-16T09:18:46.019Z,96647.06
2019-02-16T09:21:34.265Z,96647.60
2019-02-16T09:24:28.641Z,96651.25
2019-02-16T09:27:28.245Z,96653.77
2019-02-16T09:30:22.563Z,96652.02
2019-02-16T09:33:13.860Z,96648.77
2019-02-16T09:35:51.768Z,96645.73
2019-02-16T09:38:42.860Z,96642.08
2019-02-16T09:41:31.184Z,96647.98
2019-02-16T09:44:22.277Z,96647.61
2019-02-16T09:47:19.462Z,96641.48
2019-02-16T09:50:06.909Z,96637.84
2019-02-16T09:52:57.210Z,96633.55
2019-02-16T09:55:45.650Z,96631.05
2019-02-16T09:58:32.782Z,96638.84
2019-02-16T10:01:21.104Z,96632.69
2019-02-16T10:04:04.450Z,96625.53
2019-02-16T10:06:43.719Z,96627.30
2019-02-16T10:09:38.249Z,96625.45
2019-02-16T10:12:41.599Z,96616.93
2019-02-16T10:15:33.319Z,96610.23
2019-02-16T10:18:24.688Z,96612.70
2019-02-16T10:21:09.441Z,96607.67
2019-02-16T10:24:07.136Z,96604.02
2019-02-16T10:26:58.428Z,96608.59
2019-02-16T10:29:56.012Z,96595.02
2019-02-16T10:32:38.541Z,96602.73
2019-02-16T10:35:42.363Z,96592.97
2019-02-16T10:38:25.448Z,96599.73
2019-02-16T10:41:12.809Z,96592.61
2019-02-16T10:44:00.912Z,96589.89
2019-02-16T10:47:01.201Z,96587.78
2019-02-16T10:49:49.549Z,96587.78
2019-02-16T10:52:29.896Z,96571.98
2019-02-16T10:55:12.470Z,96563.83
2019-02-16T10:58:12.950Z,96570.05
2019-02-16T11:00:55.072Z,96560.11
2019-02-16T11:03:43.382Z,96561.95
2019-02-16T11:06:31.430Z,96549.44
2019-02-16T11:09:14.518Z,96536.46
2019-02-16T11:11:59.402Z,96535.88
2019-02-16T11:14:46.553Z,96538.73
2019-02-16T11:17:50.042Z,96533.86
2019-02-16T11:20:27.804Z,96535.89
2019-02-16T11:23:24.994Z,96528.57
2019-02-16T11:26:28.681Z,96276.36
2019-02-16T11:29:20.192Z,96521.80
2019-02-16T11:32:02.255Z,96523.46
2019-02-16T11:34:53.367Z,96517.52
2019-02-16T11:37:44.653Z,96518.61
2019-02-16T11:40:31.836Z,96525.87
2019-02-16T11:43:18.376Z,96520.79
2019-02-16T11:46:00.299Z,96512.95
2019-02-16T11:49:06.708Z,96523.13
2019-02-16T11:52:14.575Z,96514.20
2019-02-16T11:55:11.512Z,96502.31
2019-02-16T11:58:08.889Z,96507.92
2019-02-16T12:01:02.193Z,96508.02
2019-02-16T12:03:47.566Z,96503.32
2019-02-16T12:06:28.040Z,96495.89
2019-02-16T12:09:19.845Z,96495.52
2019-02-16T12:12:07.202Z,96499.03
2019-02-16T12:15:04.805Z,96490.73
2019-02-16T12:17:59.313Z,96492.30
2019-02-16T12:20:46.527Z,96483.04
2019-02-16T12:23:25.574Z,96482.18
2019-02-16T12:26:05.854Z,96487.30
2019-02-16T12:29:06.210Z,96480.97
2019-02-16T12:32:00.575Z,96482.55
2019-02-16T12:34:41.424Z,96487.42
2019-02-16T12:37:20.367Z,96481.60
2019-02-16T12:40:02.427Z,96470.09
2019-02-16T12:42:42.066Z,96472.47
2019-02-16T12:45:18.477Z,96467.66
2019-02-16T12:47:59.863Z,96465.68
2019-02-16T12:50:38.764Z,96465.27
2019-02-16T12:53:22.869Z,96464.47
2019-02-16T12:56:09.763Z,96458.44
2019-02-16T12:58:49.143Z,96458.25
2019-02-16T13:01:36.504Z,96455.78
2019-02-16T13:04:30.760Z,96449.82
2019-02-16T13:07:07.507Z,96456.25
2019-02-16T13:09:42.703Z,96450.23
2019-02-16T13:12:35.267Z,96450.82
2019-02-16T13:15:33.343Z,96446.33
2019-02-16T13:18:31.253Z,96451.03
2019-02-16T13:21:16.230Z,96446.21
2019-02-16T13:24:13.839Z,96439.59
2019-02-16T13:27:08.399Z,96448.39
2019-02-16T13:29:58.018Z,96444.34
2019-02-16T13:32:45.806Z,96439.19
2019-02-16T13:35:32.957Z,96439.13
2019-02-16T13:38:24.630Z,96435.47
2019-02-16T13:41:15.260Z,96430.28
2019-02-16T13:43:49.859Z,96432.20
2019-02-16T13:46:33.741Z,96425.80
2019-02-16T13:49:16.310Z,96430.48
2019-02-16T13:52:16.791Z,96422.77
2019-02-16T13:55:00.438Z,96426.66
2019-02-16T13:57:55.673Z,96421.70
2019-02-16T14:00:29.649Z,96421.09
2019-02-16T14:03:16.778Z,96421.16
2019-02-16T14:05:54.696Z,96415.45
2019-02-16T14:08:45.954Z,96415.14
2019-02-16T14:11:30.026Z,96419.70
2019-02-16T14:14:24.580Z,96411.80
2019-02-16T14:17:22.011Z,96417.00
2019-02-16T14:19:51.359Z,96411.35
2019-02-16T14:22:20.736Z,96417.56
2019-02-16T14:24:54.026Z,96410.13
2019-02-16T14:27:24.667Z,96423.45
2019-02-16T14:29:54.383Z,96411.09
2019-02-16T14:32:23.749Z,96408.48
2019-02-16T14:34:53.083Z,96413.03
2019-02-16T14:37:54.354Z,96405.41
2019-02-16T14:40:26.670Z,96407.62
2019-02-16T14:42:56.127Z,96406.88
2019-02-16T14:45:26.151Z,96401.94
2019-02-16T14:47:55.492Z,96398.58
2019-02-16T14:50:24.977Z,96397.23
2019-02-16T14:52:54.347Z,96395.34
2019-02-16T14:55:23.750Z,96396.03
2019-02-16T14:57:53.158Z,96397.77
2019-02-16T15:00:22.532Z,96399.28
2019-02-16T15:02:52.090Z,96396.52
2019-02-16T15:05:21.459Z,96406.28
2019-02-16T15:07:50.857Z,96406.15
2019-02-16T15:10:20.224Z,96403.39
2019-02-16T15:12:49.585Z,96404.27
2019-02-16T15:15:18.978Z,96398.63
2019-02-16T15:17:48.294Z,96396.56
2019-02-16T15:20:17.717Z,96396.59
2019-02-16T15:22:47.905Z,96395.84
2019-02-16T15:25:17.278Z,96401.82
2019-02-16T15:27:46.682Z,96395.31
2019-02-16T15:30:17.080Z,96403.99
2019-02-16T15:32:46.535Z,96415.09
2019-02-16T15:35:16.961Z,96405.76
2019-02-16T15:37:46.319Z,96404.03
2019-02-16T15:40:17.393Z,96420.92
2019-02-16T15:42:47.442Z,96409.20
2019-02-16T15:45:17.534Z,96413.13
2019-02-16T15:47:46.747Z,96407.35
2019-02-16T15:50:16.255Z,96411.19
2019-02-16T15:52:45.752Z,96415.70
2019-02-16T15:55:15.125Z,96411.98
2019-02-16T15:57:46.808Z,96410.00
2019-02-16T16:00:20.302Z,96419.34
2019-02-16T16:02:50.864Z,96417.25
2019-02-16T16:05:22.120Z,96418.92
2019-02-16T16:08:16.027Z,96420.09
2019-02-16T16:10:54.547Z,96426.03
2019-02-16T16:13:54.947Z,96436.30
2019-02-16T16:16:43.287Z,96433.47
2019-02-16T16:19:34.882Z,96438.36
2019-02-16T16:22:22.293Z,96439.78
2019-02-16T16:25:04.139Z,96443.30
2019-02-16T16:27:43.412Z,96445.82
2019-02-16T16:30:43.656Z,96450.75
2019-02-16T16:33:30.798Z,96453.47
2019-02-16T16:36:23.405Z,96451.55
2019-02-16T16:39:11.691Z,96458.63
2019-02-16T16:42:02.835Z,96460.45
2019-02-16T16:44:41.997Z,96470.02
2019-02-16T16:47:36.185Z,96465.81
2019-02-16T16:50:25.104Z,96471.99
2019-02-16T16:53:14.294Z,96479.51
2019-02-16T16:55:52.066Z,96479.80
2019-02-16T16:58:44.148Z,96478.23
2019-02-16T17:01:41.379Z,96479.61
2019-02-16T17:04:29.704Z,96479.42
2019-02-16T17:07:33.392Z,96489.14
2019-02-16T17:10:29.082Z,96492.22
2019-02-16T17:13:15.556Z,96492.22
2019-02-16T17:16:03.879Z,96488.77
2019-02-16T17:18:51.006Z,96490.46
2019-02-16T17:21:39.280Z,96491.37
2019-02-16T17:24:26.293Z,96277.61
2019-02-16T17:27:17.818Z,96493.91
2019-02-16T17:30:05.312Z,96495.23
2019-02-16T17:32:52.767Z,96497.20
2019-02-16T17:35:47.493Z,96495.61
2019-02-16T17:38:24.092Z,96497.26
2019-02-16T17:41:04.403Z,96505.84
2019-02-16T17:44:10.920Z,96503.17
2019-02-16T17:47:07.557Z,96506.67
2019-02-16T17:49:46.595Z,96504.84
2019-02-16T17:52:26.329Z,96500.34
2019-02-16T17:55:17.752Z,96501.97
2019-02-16T17:58:12.140Z,96507.34
2019-02-16T18:00:59.054Z,96509.52
2019-02-16T18:04:02.725Z,96502.56
2019-02-16T18:06:57.137Z,96506.59
2019-02-16T18:09:38.863Z,96509.80
2019-02-16T18:12:26.933Z,96509.28
2019-02-16T18:15:15.220Z,96510.62
2019-02-16T18:17:55.806Z,96519.97
2019-02-16T18:20:41.595Z,96520.88
2019-02-16T18:23:19.287Z,96522.02
2019-02-16T18:26:03.136Z,96520.69
2019-02-16T18:29:00.599Z,96517.20
2019-02-16T18:31:42.389Z,96519.06
2019-02-16T18:34:29.516Z,96515.14
2019-02-16T18:37:13.238Z,96519.45
2019-02-16T18:40:02.471Z,96515.36
2019-02-16T18:42:47.997Z,96522.66
2019-02-16T18:45:34.712Z,96526.92
2019-02-16T18:48:22.091Z,96530.67
2019-02-16T18:51:13.267Z,96523.19
2019-02-16T18:54:04.561Z,96522.93
2019-02-16T18:57:06.046Z,96519.98
2019-02-16T18:59:44.849Z,96516.69
2019-02-16T19:02:36.445Z,96514.11
2019-02-16T19:05:24.218Z,96524.56
2019-02-16T19:08:15.642Z,96529.38
2019-02-16T19:11:03.942Z,96529.38
2019-02-16T19:14:01.348Z,96521.63
2019-02-16T19:16:39.705Z,96524.58
2019-02-16T19:19:26.204Z,96519.20
2019-02-16T19:22:07.314Z,96529.65
2019-02-16T19:24:57.915Z,96532.05
2019-02-16T19:28:01.408Z,96539.00
2019-02-16T19:30:41.703Z,96537.12
2019-02-16T19:33:29.998Z,96545.63
2019-02-16T19:36:20.515Z,96545.08
2019-02-16T19:39:11.928Z,96540.80
2019-02-16T19:42:00.241Z,96543.18
2019-02-16T19:44:37.888Z,96550.91
2019-02-16T19:47:26.185Z,96550.11
2019-02-16T19:50:03.832Z,96554.13
2019-02-16T19:52:40.059Z,96310.64
2019-02-16T19:55:28.398Z,96546.63
2019-02-16T19:58:11.640Z,96548.76
2019-02-16T20:00:47.390Z,96546.58
2019-02-16T20:03:27.364Z,96549.52
2019-02-16T20:06:15.651Z,96547.66
2019-02-16T20:09:15.516Z,96544.16
2019-02-16T20:12:07.489Z,96552.67
2019-02-16T20:14:45.739Z,96546.77
2019-02-16T20:17:38.506Z,96546.77
2019-02-16T20:20:30.927Z,96541.70
2019-02-16T20:23:19.208Z,96558.83
2019-02-16T20:25:59.512Z,96562.81
2019-02-16T20:28:41.410Z,96554.55
2019-02-16T20:31:16.668Z,96544.87
2019-02-16T20:33:55.185Z,96548.66
2019-02-16T20:36:46.544Z,96558.77
2019-02-16T20:39:44.627Z,96558.77
2019-02-16T20:42:42.000Z,96549.07
2019-02-16T20:45:33.422Z,96561.34
2019-02-16T20:48:31.949Z,96555.20
2019-02-16T20:51:20.242Z,96555.20
2019-02-16T20:54:02.981Z,96557.06
2019-02-16T20:56:49.047Z,96547.72
2019-02-16T20:59:40.079Z,96551.93
2019-02-16T21:02:37.455Z,96553.50
2019-02-16T21:05:41.006Z,96553.50
2019-02-16T21:08:26.349Z,96549.42
2019-02-16T21:11:23.449Z,96548.94
2019-02-16T21:13:58.569Z,96540.11
2019-02-16T21:16:46.108Z,96552.89
2019-02-16T21:19:37.939Z,96552.89
2019-02-16T21:22:38.439Z,96544.56
2019-02-16T21:25:16.788Z,96540.01
2019-02-16T21:27:58.134Z,96550.55
2019-02-16T21:30:51.324Z,96549.55
2019-02-16T21:33:38.289Z,96552.20
2019-02-16T21:36:22.757Z,96551.16
2019-02-16T21:39:10.417Z,96550.07
2019-02-16T21:41:54.918Z,96552.45
2019-02-16T21:44:44.276Z,96550.70
2019-02-16T21:47:31.467Z,96550.70
2019-02-16T21:50:17.897Z,96554.18
2019-02-16T21:53:06.314Z,96553.34
2019-02-16T21:55:57.436Z,96561.84
2019-02-16T21:58:44.685Z,96554.10
2019-02-16T22:01:22.316Z,96556.19
2019-02-16T22:04:01.535Z,96552.16
2019-02-16T22:06:59.198Z,96549.44
2019-02-16T22:09:57.618Z,96546.97
2019-02-16T22:12:52.085Z,96545.63
2019-02-16T22:15:22.319Z,96547.14
2019-02-16T22:17:52.643Z,96541.29
2019-02-16T22:20:22.802Z,96549.55
2019-02-16T22:22:52.602Z,96537.56
2019-02-16T22:25:22.437Z,96548.45
2019-02-16T22:27:52.274Z,96545.63
2019-02-16T22:30:21.950Z,96542.17
2019-02-16T22:32:51.754Z,96542.17
2019-02-16T22:35:21.798Z,96539.45
2019-02-16T22:37:51.143Z,96548.98
2019-02-16T22:40:20.807Z,96548.98
2019-02-16T22:42:50.147Z,96540.84
2019-02-16T22:45:19.522Z,96540.84
2019-02-16T22:47:48.896Z,96541.76
2019-02-16T22:50:18.402Z,96535.33
2019-02-16T22:52:48.950Z,96534.26
2019-02-16T22:55:19.050Z,96534.26
2019-02-16T22:57:48.404Z,96540.48
2019-02-16T23:00:37.139Z,96539.83
2019-02-16T23:03:08.138Z,96533.63
2019-02-16T23:05:37.643Z,96538.88
2019-02-16T23:08:07.448Z,96534.09
2019-02-16T23:10:37.586Z,96531.75
2019-02-16T23:13:08.940Z,96528.85
2019-02-16T23:15:38.366Z,96532.19
2019-02-16T23:18:08.104Z,96533.98
2019-02-16T23:20:37.743Z,96529.20
2019-02-16T23:23:07.963Z,96518.29
2019-02-16T23:25:37.444Z,96531.80
2019-02-16T23:28:07.731Z,96532.73
2019-02-16T23:30:38.838Z,96525.08
2019-02-16T23:33:09.063Z,96530.20
2019-02-16T23:35:39.474Z,96526.83
2019-02-16T23:38:08.995Z,96521.70
2019-02-16T23:40:39.741Z,96522.96
2019-02-16T23:43:09.505Z,96524.27
2019-02-16T23:45:39.201Z,96530.77
2019-02-16T23:48:10.419Z,96522.45
2019-02-16T23:50:39.786Z,96522.97
2019-02-16T23:53:09.555Z,96519.61
2019-02-16T23:55:39.310Z,96527.96
2019-02-16T23:58:08.990Z,96530.41
